Time;durP1;ratioP1;P1;durP2;ratioP2;P2;SDS_P1;SDS_P2;PMS_P1;PMS_P2;Temp;Humidity;BMP_temperature;BMP_pressure;BME280_temperature;BME280_humidity;BME280_pressure;Samples;Min_cycle;Max_cycle;Signal;HPM_P1;HPM_P2
2023/09/12 00:00:52;;;;;;;40.10;32.63;;;19.30;99.90;;;;;;5069451;28;20044;-82
2023/09/12 00:03:22;;;;;;;37.83;31.20;;;19.30;99.90;;;;;;5076617;28;20059;-82
2023/09/12 00:05:54;;;;;;;39.20;31.98;;;19.20;99.90;;;;;;5065778;28;20052;-83
2023/09/12 00:08:20;;;;;;;38.65;33.17;;;19.30;99.90;;;;;;5073827;28;20055;-83
2023/09/12 00:10:46;;;;;;;39.67;33.03;;;19.30;99.90;;;;;;5069639;28;20071;-83
2023/09/12 00:13:13;;;;;;;42.13;33.95;;;19.20;99.90;;;;;;5071089;28;20080;-83
2023/09/12 00:15:38;;;;;;;40.55;33.42;;;19.20;99.90;;;;;;5087911;28;20044;-83
2023/09/12 00:18:04;;;;;;;41.47;32.78;;;19.20;99.90;;;;;;5081017;28;20044;-83
2023/09/12 00:20:30;;;;;;;40.72;32.45;;;19.20;99.90;;;;;;5070248;28;20040;-83
2023/09/12 00:22:56;;;;;;;37.97;31.13;;;19.20;99.90;;;;;;5067897;28;22172;-83
2023/09/12 00:25:21;;;;;;;38.38;31.90;;;19.10;99.90;;;;;;5085924;28;20043;-83
2023/09/12 00:27:47;;;;;;;43.38;32.95;;;19.10;99.90;;;;;;5088388;28;20382;-83
2023/09/12 00:30:14;;;;;;;37.85;33.05;;;19.10;99.90;;;;;;5084292;28;20044;-83
2023/09/12 00:32:40;;;;;;;39.13;31.85;;;19.10;99.90;;;;;;5068639;28;20044;-83
2023/09/12 00:35:06;;;;;;;40.40;32.30;;;19.20;99.90;;;;;;5072798;28;20505;-83
2023/09/12 00:37:31;;;;;;;40.67;33.85;;;19.10;99.90;;;;;;5072157;28;20151;-83
2023/09/12 00:39:57;;;;;;;40.65;32.75;;;19.00;99.90;;;;;;5069385;28;20135;-83
2023/09/12 00:42:26;;;;;;;43.13;34.65;;;19.00;99.90;;;;;;5080541;28;20047;-83
2023/09/12 00:44:51;;;;;;;43.35;31.73;;;19.00;99.90;;;;;;5068840;28;20052;-82
2023/09/12 00:47:18;;;;;;;39.58;32.15;;;19.00;99.90;;;;;;5073443;28;20058;-83
2023/09/12 00:49:45;;;;;;;41.97;32.28;;;19.00;99.90;;;;;;5078289;28;20060;-82
2023/09/12 00:52:12;;;;;;;41.65;32.38;;;19.00;99.90;;;;;;5074083;28;20040;-83
2023/09/12 00:54:39;;;;;;;41.95;33.88;;;18.90;99.90;;;;;;5087502;28;20578;-85
2023/09/12 00:57:05;;;;;;;41.35;34.25;;;18.90;99.90;;;;;;5053086;28;20052;-84
2023/09/12 00:59:30;;;;;;;45.65;34.35;;;18.90;99.90;;;;;;5068425;28;20040;-84
2023/09/12 01:01:57;;;;;;;43.85;33.58;;;18.80;99.90;;;;;;5070505;28;20075;-84
2023/09/12 01:04:22;;;;;;;42.95;33.72;;;18.80;99.90;;;;;;5076514;28;20036;-85
2023/09/12 01:06:48;;;;;;;46.42;35.28;;;18.80;99.90;;;;;;5079056;28;20041;-85
2023/09/12 01:09:14;;;;;;;48.28;34.60;;;18.80;99.90;;;;;;5082992;28;20037;-84
2023/09/12 01:11:40;;;;;;;44.35;34.60;;;18.80;99.90;;;;;;5080333;28;20037;-84
2023/09/12 01:14:06;;;;;;;45.63;33.85;;;18.80;99.90;;;;;;5069417;28;20048;-85
2023/09/12 01:16:31;;;;;;;43.90;34.03;;;18.70;99.90;;;;;;5072608;28;20048;-85
2023/09/12 01:18:57;;;;;;;44.20;34.75;;;18.80;99.90;;;;;;5068761;28;20058;-84
2023/09/12 01:21:41;;;;;;;45.50;35.58;;;18.70;99.90;;;;;;5069867;28;20139;-84
2023/09/12 01:24:06;;;;;;;44.53;33.90;;;18.70;99.90;;;;;;5074994;28;20040;-85
2023/09/12 01:27:02;;;;;;;42.88;35.42;;;18.60;99.90;;;;;;5080601;28;20445;-84
2023/09/12 01:29:28;;;;;;;45.83;35.75;;;18.60;99.90;;;;;;5077856;28;20169;-85
2023/09/12 01:31:55;;;;;;;45.10;35.33;;;18.60;99.90;;;;;;5067494;28;20048;-84
2023/09/12 01:34:20;;;;;;;45.53;35.40;;;18.50;99.90;;;;;;5065698;28;20358;-85
2023/09/12 01:36:46;;;;;;;39.30;32.33;;;18.50;99.90;;;;;;5087256;28;20040;-85
2023/09/12 01:39:11;;;;;;;45.00;34.58;;;18.40;99.90;;;;;;5072118;28;20060;-85
2023/09/12 01:41:42;;;;;;;43.35;34.65;;;18.40;99.90;;;;;;5087466;28;20043;-85
2023/09/12 01:44:08;;;;;;;44.13;33.55;;;18.50;99.90;;;;;;5088063;28;20055;-84
2023/09/12 01:46:35;;;;;;;36.85;31.20;;;18.50;99.90;;;;;;5072182;28;20054;-85
2023/09/12 01:49:04;;;;;;;37.80;31.98;;;18.40;99.90;;;;;;5070234;28;20052;-84
2023/09/12 01:51:30;;;;;;;41.50;33.42;;;18.30;99.90;;;;;;5072081;28;20059;-85
2023/09/12 01:53:56;;;;;;;36.97;31.13;;;18.30;99.90;;;;;;5076318;28;20161;-85
2023/09/12 01:56:23;;;;;;;40.03;31.10;;;18.20;99.90;;;;;;5075322;28;20059;-85
2023/09/12 01:58:48;;;;;;;39.97;31.90;;;18.20;99.90;;;;;;5068585;28;20047;-82
2023/09/12 02:01:14;;;;;;;40.80;32.15;;;18.20;99.90;;;;;;5051264;28;20052;-82
2023/09/12 02:03:40;;;;;;;39.30;31.17;;;18.10;99.90;;;;;;5070239;28;20072;-85
2023/09/12 02:06:05;;;;;;;37.83;30.83;;;18.10;99.90;;;;;;5087406;28;20084;-85
2023/09/12 02:08:31;;;;;;;40.22;31.45;;;18.10;99.90;;;;;;5088599;28;20094;-85
2023/09/12 02:10:57;;;;;;;36.33;31.23;;;18.10;99.90;;;;;;5081291;28;20052;-85
2023/09/12 02:13:22;;;;;;;41.05;32.45;;;18.00;99.90;;;;;;5068536;28;20156;-85
2023/09/12 02:15:48;;;;;;;38.33;31.35;;;18.00;99.90;;;;;;5061613;28;20054;-85
2023/09/12 02:18:13;;;;;;;39.97;32.05;;;18.00;99.90;;;;;;5074417;28;20047;-85
2023/09/12 02:20:41;;;;;;;42.47;31.90;;;18.00;99.90;;;;;;5067929;28;20132;-86
2023/09/12 02:23:07;;;;;;;41.17;32.25;;;18.00;99.90;;;;;;5072916;28;20047;-85
2023/09/12 02:25:32;;;;;;;46.45;34.90;;;18.00;99.90;;;;;;5078675;28;20048;-85
2023/09/12 02:27:58;;;;;;;38.88;30.67;;;18.00;99.90;;;;;;5068817;28;20055;-86
2023/09/12 02:30:24;;;;;;;41.15;32.75;;;18.00;99.90;;;;;;5083119;28;20454;-86
2023/09/12 02:32:49;;;;;;;39.78;31.75;;;18.00;99.90;;;;;;5070440;28;20079;-85
2023/09/12 02:35:15;;;;;;;42.67;31.30;;;18.00;99.90;;;;;;5082154;28;20106;-85
2023/09/12 02:37:40;;;;;;;43.35;32.90;;;18.00;99.90;;;;;;5067235;28;20048;-83
2023/09/12 02:40:07;;;;;;;39.63;32.03;;;18.10;99.90;;;;;;5081274;28;20048;-83
2023/09/12 02:42:33;;;;;;;75.00;36.15;;;18.10;99.90;;;;;;5069287;28;20052;-82
2023/09/12 02:44:58;;;;;;;79.45;35.47;;;18.10;99.90;;;;;;5071864;28;20047;-83
2023/09/12 02:47:24;;;;;;;159.40;39.67;;;18.20;99.90;;;;;;5077306;28;20119;-83
2023/09/12 02:49:49;;;;;;;67.25;33.75;;;18.20;99.90;;;;;;5068150;28;20048;-82
2023/09/12 02:52:15;;;;;;;134.77;38.10;;;18.20;99.90;;;;;;5086435;28;20104;-83
2023/09/12 02:54:40;;;;;;;125.03;36.78;;;18.20;99.90;;;;;;5086656;28;20040;-83
2023/09/12 02:57:06;;;;;;;234.20;41.83;;;18.20;99.90;;;;;;5079278;28;20123;-83
2023/09/12 02:59:32;;;;;;;120.95;33.53;;;18.20;99.90;;;;;;5067572;28;20052;-83
2023/09/12 03:01:58;;;;;;;88.65;32.85;;;18.20;99.90;;;;;;5061034;28;20603;-83
2023/09/12 03:04:28;;;;;;;67.53;30.50;;;18.20;99.90;;;;;;5086809;28;20040;-83
2023/09/12 03:06:53;;;;;;;168.20;34.38;;;18.20;99.90;;;;;;5085875;28;20043;-83
2023/09/12 03:09:19;;;;;;;133.40;35.63;;;18.20;99.90;;;;;;5076485;28;20029;-83
2023/09/12 03:11:45;;;;;;;119.50;31.88;;;18.20;99.90;;;;;;5084771;28;20052;-83
2023/09/12 03:14:10;;;;;;;256.92;43.75;;;18.20;99.90;;;;;;5082500;28;20040;-83
2023/09/12 03:16:37;;;;;;;160.20;34.05;;;18.10;99.90;;;;;;5083174;28;20040;-84
2023/09/12 03:19:03;;;;;;;95.30;30.25;;;18.10;99.90;;;;;;5080090;28;20120;-83
2023/09/12 03:21:30;;;;;;;154.65;34.60;;;18.10;99.90;;;;;;5067949;28;20052;-83
2023/09/12 03:23:55;;;;;;;204.05;35.72;;;18.10;99.90;;;;;;5081883;28;20062;-83
2023/09/12 03:26:21;;;;;;;98.82;29.70;;;18.10;99.90;;;;;;5068633;28;20036;-83
2023/09/12 03:28:50;;;;;;;137.57;33.45;;;18.10;99.90;;;;;;5067178;28;20049;-83
2023/09/12 03:31:17;;;;;;;117.50;32.25;;;18.10;99.90;;;;;;5094785;28;20043;-83
2023/09/12 03:33:47;;;;;;;159.52;36.65;;;18.10;99.90;;;;;;5066751;28;20098;-83
2023/09/12 03:36:13;;;;;;;99.70;32.42;;;18.10;99.90;;;;;;5066797;28;20132;-83
2023/09/12 03:38:38;;;;;;;52.63;29.52;;;18.00;99.90;;;;;;5066894;28;20123;-83
2023/09/12 03:41:04;;;;;;;126.57;36.45;;;18.00;99.90;;;;;;5074017;28;20040;-83
2023/09/12 03:43:30;;;;;;;96.85;32.05;;;18.00;99.90;;;;;;5086245;28;20533;-83
2023/09/12 03:45:56;;;;;;;132.38;35.92;;;18.00;99.90;;;;;;5074724;28;20044;-83
2023/09/12 03:48:21;;;;;;;140.15;34.60;;;18.00;99.90;;;;;;5072689;28;20051;-83
2023/09/12 03:50:47;;;;;;;111.43;34.38;;;18.00;99.90;;;;;;5066009;28;20541;-83
2023/09/12 03:53:14;;;;;;;78.05;30.58;;;18.00;99.90;;;;;;5081983;28;20044;-83
2023/09/12 03:55:40;;;;;;;153.27;37.55;;;17.90;99.90;;;;;;5065998;28;20181;-83
2023/09/12 03:58:06;;;;;;;142.27;34.42;;;17.90;99.90;;;;;;5067182;28;20123;-85
2023/09/12 04:00:31;;;;;;;135.32;33.97;;;17.90;99.90;;;;;;5068020;28;20044;-85
2023/09/12 04:02:57;;;;;;;133.48;32.25;;;17.90;99.90;;;;;;5083966;28;20125;-83
2023/09/12 04:05:22;;;;;;;100.90;32.60;;;17.90;99.90;;;;;;5072041;28;20055;-83
2023/09/12 04:07:48;;;;;;;202.25;37.58;;;17.90;99.90;;;;;;5067299;28;20526;-83
2023/09/12 04:10:14;;;;;;;119.82;35.08;;;18.00;99.90;;;;;;5069173;28;20044;-85
2023/09/12 04:12:40;;;;;;;142.05;37.53;;;18.00;99.90;;;;;;5066336;28;20072;-84
2023/09/12 04:15:06;;;;;;;185.80;39.75;;;18.00;99.90;;;;;;5067566;28;20049;-85
2023/09/12 04:17:32;;;;;;;118.03;37.53;;;18.00;99.90;;;;;;5057599;28;20044;-84
2023/09/12 04:19:57;;;;;;;252.45;44.05;;;18.00;99.90;;;;;;5078924;28;20044;-84
2023/09/12 04:22:23;;;;;;;216.80;40.90;;;18.00;99.90;;;;;;5087966;28;20044;-84
2023/09/12 04:24:48;;;;;;;110.57;35.95;;;18.00;99.90;;;;;;5065676;28;20055;-83
2023/09/12 04:27:14;;;;;;;142.90;33.15;;;18.00;99.90;;;;;;5077150;28;20105;-84
2023/09/12 04:29:39;;;;;;;211.15;41.03;;;18.00;99.90;;;;;;5074343;28;20041;-85
2023/09/12 04:32:05;;;;;;;96.75;33.88;;;17.90;99.90;;;;;;5070832;28;20616;-84
2023/09/12 04:34:31;;;;;;;142.68;36.75;;;17.90;99.90;;;;;;5071824;28;20044;-85
2023/09/12 04:36:57;;;;;;;81.85;33.78;;;17.90;99.90;;;;;;5053143;28;20556;-85
2023/09/12 04:39:22;;;;;;;79.50;34.88;;;17.90;99.90;;;;;;5077043;28;20036;-84
2023/09/12 04:41:48;;;;;;;55.40;30.50;;;17.90;99.90;;;;;;5080728;28;20036;-84
2023/09/12 04:44:14;;;;;;;129.32;39.42;;;17.90;99.90;;;;;;5080348;28;20060;-84
2023/09/12 04:46:39;;;;;;;60.17;30.80;;;17.90;99.90;;;;;;5072220;28;20097;-84
2023/09/12 04:49:05;;;;;;;88.38;33.58;;;17.90;99.90;;;;;;5069272;28;20254;-84
2023/09/12 04:51:30;;;;;;;95.90;34.00;;;17.90;99.90;;;;;;5069267;28;20072;-84
2023/09/12 04:53:56;;;;;;;77.15;31.17;;;18.00;99.90;;;;;;5072568;28;20128;-84
2023/09/12 04:56:24;;;;;;;118.97;33.30;;;17.90;99.90;;;;;;5081611;28;20039;-84
2023/09/12 04:58:50;;;;;;;184.82;41.70;;;17.90;99.90;;;;;;5085949;28;20080;-84
2023/09/12 05:01:16;;;;;;;100.82;31.38;;;17.80;99.90;;;;;;5072791;28;20088;-84
2023/09/12 05:03:42;;;;;;;218.25;37.30;;;17.80;99.90;;;;;;5088196;28;20075;-84
2023/09/12 05:06:07;;;;;;;246.02;42.83;;;17.90;99.90;;;;;;5072827;28;20127;-86
2023/09/12 05:08:33;;;;;;;83.72;28.15;;;17.80;99.90;;;;;;5088426;28;20052;-85
2023/09/12 05:10:59;;;;;;;131.93;35.85;;;17.80;99.90;;;;;;5082241;28;20476;-87
2023/09/12 05:13:24;;;;;;;97.35;34.85;;;17.90;99.90;;;;;;5089179;28;20050;-86
2023/09/12 05:15:50;;;;;;;57.55;31.40;;;17.80;99.90;;;;;;5081968;28;20932;-86
2023/09/12 05:18:15;;;;;;;178.45;38.88;;;17.80;99.90;;;;;;5084404;28;20048;-86
2023/09/12 05:20:41;;;;;;;143.85;34.80;;;17.80;99.90;;;;;;5090754;28;20078;-86
2023/09/12 05:23:07;;;;;;;140.68;35.53;;;17.80;99.90;;;;;;5080158;28;20052;-86
2023/09/12 05:25:32;;;;;;;141.38;35.92;;;17.80;99.90;;;;;;5069643;28;20052;-86
2023/09/12 05:27:58;;;;;;;138.80;40.13;;;17.80;99.90;;;;;;5082587;28;20040;-86
2023/09/12 05:30:23;;;;;;;184.52;43.08;;;17.80;99.90;;;;;;5088803;28;20067;-86
2023/09/12 05:32:49;;;;;;;109.30;36.92;;;17.80;99.90;;;;;;5088602;28;20051;-88
2023/09/12 05:35:14;;;;;;;107.65;37.15;;;17.80;99.90;;;;;;5072225;28;20082;-87
2023/09/12 05:37:40;;;;;;;61.72;32.92;;;17.80;99.90;;;;;;5080721;28;20051;-86
2023/09/12 05:40:06;;;;;;;56.47;33.85;;;17.80;99.90;;;;;;5087283;28;20103;-84
2023/09/12 05:42:32;;;;;;;91.65;36.25;;;17.80;99.90;;;;;;5088277;28;20537;-85
2023/09/12 05:44:57;;;;;;;77.88;39.10;;;17.80;99.90;;;;;;5105285;28;20051;-85
2023/09/12 05:47:23;;;;;;;75.22;38.10;;;17.90;99.90;;;;;;5090105;28;20052;-84
2023/09/12 05:49:49;;;;;;;130.55;42.40;;;17.90;99.90;;;;;;5089624;28;20086;-82
2023/09/12 05:52:15;;;;;;;88.03;39.75;;;17.90;99.90;;;;;;5072645;28;20132;-84
2023/09/12 05:54:41;;;;;;;61.47;35.75;;;18.00;99.90;;;;;;5074308;28;20135;-83
2023/09/12 05:57:07;;;;;;;61.55;35.90;;;18.00;99.90;;;;;;5067988;28;20052;-83
2023/09/12 05:59:37;;;;;;;102.05;41.20;;;18.10;99.90;;;;;;5069427;28;20051;-81
2023/09/12 06:02:02;;;;;;;66.53;37.10;;;18.10;99.90;;;;;;5069267;28;20470;-84
2023/09/12 06:04:28;;;;;;;64.20;38.38;;;18.20;99.90;;;;;;5068507;28;20495;-84
2023/09/12 06:06:53;;;;;;;73.47;39.15;;;18.20;99.90;;;;;;5081758;28;20040;-83
2023/09/12 06:09:19;;;;;;;57.72;36.17;;;18.20;99.90;;;;;;5083633;28;20044;-83
2023/09/12 06:11:45;;;;;;;58.58;35.20;;;18.20;99.90;;;;;;5089252;28;20063;-84
2023/09/12 06:14:10;;;;;;;71.80;38.15;;;18.20;99.90;;;;;;5088349;28;20122;-84
2023/09/12 06:16:36;;;;;;;72.63;39.45;;;18.20;99.90;;;;;;5075524;28;20044;-83
2023/09/12 06:19:01;;;;;;;65.63;39.88;;;18.30;99.90;;;;;;5068793;28;20048;-83
2023/09/12 06:21:27;;;;;;;72.97;40.53;;;18.30;99.90;;;;;;5051648;28;20048;-84
2023/09/12 06:24:15;;;;;;;66.80;39.22;;;18.60;99.90;;;;;;5077092;28;20399;-83
2023/09/12 06:26:41;;;;;;;59.30;37.47;;;18.40;99.90;;;;;;5079377;28;20040;-81
2023/09/12 06:29:07;;;;;;;57.60;37.95;;;18.40;99.90;;;;;;5070097;28;20079;-85
2023/09/12 06:31:33;;;;;;;57.45;36.85;;;18.40;99.90;;;;;;5068237;28;20127;-84
2023/09/12 06:33:59;;;;;;;60.67;38.67;;;18.50;99.90;;;;;;5068546;28;20045;-84
2023/09/12 06:36:25;;;;;;;58.08;37.85;;;18.50;99.90;;;;;;5068531;28;20072;-82
2023/09/12 06:38:51;;;;;;;69.50;40.45;;;18.60;99.90;;;;;;5067935;28;20083;-86
2023/09/12 06:41:20;;;;;;;56.75;37.40;;;18.70;99.90;;;;;;5069462;28;20506;-84
2023/09/12 06:43:46;;;;;;;59.20;38.78;;;18.80;99.90;;;;;;5073219;28;20060;-86
2023/09/12 06:46:12;;;;;;;53.83;36.50;;;18.80;99.90;;;;;;5078642;28;20114;-85
2023/09/12 06:48:37;;;;;;;56.83;36.80;;;18.90;99.90;;;;;;5067025;28;20049;-85
2023/09/12 06:51:08;;;;;;;57.58;37.78;;;19.00;99.90;;;;;;5068745;28;20055;-84
2023/09/12 06:53:34;;;;;;;56.08;37.05;;;19.10;99.90;;;;;;5076930;28;20044;-85
2023/09/12 06:55:59;;;;;;;57.88;38.05;;;19.20;99.90;;;;;;5088971;28;20067;-84
2023/09/12 06:58:25;;;;;;;55.47;37.10;;;19.20;99.90;;;;;;5088193;28;20426;-84
2023/09/12 07:00:51;;;;;;;58.97;37.42;;;19.20;99.90;;;;;;5072321;28;20087;-85
2023/09/12 07:03:17;;;;;;;54.50;36.70;;;19.20;99.90;;;;;;5078471;28;20082;-84
2023/09/12 07:05:43;;;;;;;56.78;37.40;;;19.30;99.90;;;;;;5088406;28;20048;-84
2023/09/12 07:08:08;;;;;;;54.65;37.20;;;19.30;99.90;;;;;;5087031;28;20043;-84
2023/09/12 07:10:34;;;;;;;55.25;37.28;;;19.30;99.90;;;;;;5077822;28;20093;-85
2023/09/12 07:12:59;;;;;;;54.83;35.80;;;19.30;99.90;;;;;;5067867;28;20048;-83
2023/09/12 07:15:25;;;;;;;53.33;37.40;;;19.40;99.90;;;;;;5068119;28;20051;-83
2023/09/12 07:17:51;;;;;;;50.25;36.70;;;19.40;99.90;;;;;;5067647;28;20048;-84
2023/09/12 07:20:17;;;;;;;45.30;33.85;;;19.50;99.90;;;;;;5068080;28;20405;-82
2023/09/12 07:22:43;;;;;;;46.05;33.08;;;19.60;99.90;;;;;;5067818;28;20057;-82
2023/09/12 07:25:11;;;;;;;49.00;34.88;;;19.60;99.90;;;;;;5068022;28;20097;-81
2023/09/12 07:27:37;;;;;;;46.90;32.38;;;19.70;99.90;;;;;;5068210;28;20052;-80
2023/09/12 07:30:06;;;;;;;48.63;33.47;;;19.70;99.90;;;;;;5067599;28;20055;-80
2023/09/12 07:32:32;;;;;;;46.00;33.38;;;19.80;99.90;;;;;;5067859;28;20045;-81
2023/09/12 07:34:57;;;;;;;39.65;31.20;;;19.90;99.90;;;;;;5067463;28;20068;-81
2023/09/12 07:37:23;;;;;;;43.45;31.15;;;20.00;99.90;;;;;;5067608;28;20040;-81
2023/09/12 07:39:49;;;;;;;44.00;32.75;;;20.00;99.90;;;;;;5070755;28;20041;-82
2023/09/12 07:42:14;;;;;;;42.97;30.60;;;20.10;99.90;;;;;;5082524;28;20124;-82
2023/09/12 07:44:40;;;;;;;41.63;30.92;;;20.20;99.90;;;;;;5067171;28;20041;-82
2023/09/12 07:47:05;;;;;;;40.90;32.70;;;20.30;99.90;;;;;;5077636;28;20055;-82
2023/09/12 07:49:31;;;;;;;40.60;31.75;;;20.40;99.90;;;;;;5087378;28;20158;-82
2023/09/12 07:51:57;;;;;;;39.78;31.45;;;20.50;99.90;;;;;;5090477;28;20047;-83
2023/09/12 07:54:23;;;;;;;40.95;32.65;;;20.60;99.90;;;;;;5090674;28;20761;-83
2023/09/12 07:56:48;;;;;;;39.83;31.67;;;20.60;99.90;;;;;;5084447;28;20071;-84
2023/09/12 07:59:14;;;;;;;43.00;32.67;;;20.70;99.90;;;;;;5083414;28;20047;-83
2023/09/12 08:01:40;;;;;;;42.47;33.00;;;20.70;99.90;;;;;;5071464;28;20097;-84
2023/09/12 08:04:06;;;;;;;45.47;34.85;;;20.70;99.90;;;;;;5070958;28;20041;-84
2023/09/12 08:06:32;;;;;;;46.97;33.78;;;20.60;99.90;;;;;;5072385;28;20040;-83
2023/09/12 08:08:58;;;;;;;46.20;33.88;;;20.50;99.90;;;;;;5071460;28;20052;-84
2023/09/12 08:11:23;;;;;;;43.53;33.47;;;20.40;99.90;;;;;;5053273;28;20053;-82
2023/09/12 08:13:50;;;;;;;42.90;33.67;;;20.50;99.90;;;;;;5071168;28;20070;-83
2023/09/12 08:16:16;;;;;;;45.83;33.08;;;20.30;99.90;;;;;;5072613;28;20040;-82
2023/09/12 08:18:41;;;;;;;39.17;31.95;;;20.20;99.90;;;;;;5068952;28;20036;-82
2023/09/12 08:21:07;;;;;;;44.28;32.25;;;20.20;99.90;;;;;;5068585;28;20056;-82
2023/09/12 08:23:33;;;;;;;40.25;31.23;;;20.20;99.90;;;;;;5085317;28;20044;-83
2023/09/12 08:25:59;;;;;;;41.72;32.08;;;20.20;99.90;;;;;;5069354;28;20045;-82
2023/09/12 08:28:25;;;;;;;38.00;30.15;;;20.20;99.90;;;;;;5068218;28;20040;-82
2023/09/12 08:30:51;;;;;;;39.13;31.13;;;20.20;99.90;;;;;;5069830;28;20045;-83
2023/09/12 08:33:16;;;;;;;36.97;29.38;;;20.30;99.90;;;;;;5070078;28;20681;-83
2023/09/12 08:35:42;;;;;;;35.05;28.52;;;20.30;99.90;;;;;;5070521;28;20047;-83
2023/09/12 08:38:08;;;;;;;32.78;26.83;;;20.40;99.90;;;;;;5069689;28;20064;-82
2023/09/12 08:40:35;;;;;;;31.30;25.02;;;20.40;99.90;;;;;;5073827;28;20052;-81
2023/09/12 08:43:03;;;;;;;28.80;25.05;;;20.50;99.90;;;;;;5091271;28;20245;-82
2023/09/12 08:45:29;;;;;;;31.30;25.10;;;20.50;99.90;;;;;;5089581;28;20129;-80
2023/09/12 08:47:57;;;;;;;32.45;26.20;;;20.50;99.90;;;;;;5090543;28;20150;-82
2023/09/12 08:50:26;;;;;;;28.15;24.80;;;20.50;99.90;;;;;;5090289;28;20066;-82
2023/09/12 08:52:52;;;;;;;29.30;23.98;;;20.40;99.90;;;;;;5089253;28;20561;-84
2023/09/12 08:55:18;;;;;;;31.10;26.13;;;20.40;99.90;;;;;;5067721;28;20051;-83
2023/09/12 08:57:48;;;;;;;29.95;24.15;;;20.40;99.90;;;;;;5068662;28;20041;-83
2023/09/12 09:00:14;;;;;;;29.80;24.95;;;20.50;99.90;;;;;;5080985;28;20119;-84
2023/09/12 09:02:41;;;;;;;32.60;26.38;;;20.60;99.90;;;;;;5087379;28;20123;-84
2023/09/12 09:05:09;;;;;;;32.90;26.08;;;20.60;99.90;;;;;;5067825;28;20048;-84
2023/09/12 09:07:39;;;;;;;37.47;29.15;;;20.70;99.90;;;;;;5079106;28;20058;-84
2023/09/12 09:10:14;;;;;;;33.88;27.95;;;20.60;99.90;;;;;;5103431;28;20048;-83
2023/09/12 09:12:40;;;;;;;38.17;28.85;;;20.60;99.90;;;;;;5089562;28;20409;-84
2023/09/12 09:15:26;;;;;;;35.38;29.58;;;20.60;99.90;;;;;;5082699;28;20138;-83
2023/09/12 09:17:52;;;;;;;39.63;31.30;;;20.70;99.90;;;;;;5069091;28;20155;-83
2023/09/12 09:20:32;;;;;;;37.95;32.78;;;20.80;99.90;;;;;;5068705;28;20044;-83
2023/09/12 09:23:09;;;;;;;38.22;28.92;;;20.80;99.90;;;;;;5070200;28;20489;-83
2023/09/12 09:25:43;;;;;;;34.92;29.13;;;20.70;99.90;;;;;;5069134;28;20076;-83
2023/09/12 09:28:19;;;;;;;36.90;29.35;;;20.70;99.90;;;;;;5070040;28;20068;-83
2023/09/12 09:30:47;;;;;;;30.98;26.55;;;20.80;99.90;;;;;;5078876;28;20040;-83
2023/09/12 09:33:13;;;;;;;36.45;28.77;;;20.80;99.90;;;;;;5069302;28;20050;-83
2023/09/12 09:35:42;;;;;;;32.30;26.83;;;20.80;99.90;;;;;;5069846;28;20650;-83
2023/09/12 09:38:08;;;;;;;31.80;28.20;;;20.90;99.90;;;;;;5076228;28;20147;-83
2023/09/12 09:40:35;;;;;;;32.28;27.40;;;20.90;99.90;;;;;;5086677;28;20032;-84
2023/09/12 09:43:02;;;;;;;36.58;29.08;;;21.00;99.90;;;;;;5083883;28;20040;-84
2023/09/12 09:45:32;;;;;;;34.75;29.02;;;21.10;99.90;;;;;;5068032;28;20055;-83
2023/09/12 09:48:04;;;;;;;34.10;28.25;;;21.20;99.90;;;;;;5051273;28;20048;-83
2023/09/12 09:50:29;;;;;;;;;;;21.30;99.90;;;;;;5070401;28;20067;-83
2023/09/12 09:52:57;;;;;;;34.60;27.15;;;21.40;99.90;;;;;;5069747;28;19924;-84
2023/09/12 09:55:23;;;;;;;35.55;29.45;;;21.50;99.90;;;;;;5068791;28;20050;-84
2023/09/12 09:57:52;;;;;;;30.17;26.67;;;21.80;99.90;;;;;;5059602;28;20521;-84
2023/09/12 10:00:20;;;;;;;32.58;27.60;;;22.20;99.90;;;;;;5069711;28;20056;-84
2023/09/12 10:02:49;;;;;;;34.53;27.15;;;22.10;99.90;;;;;;5068496;28;20117;-85
2023/09/12 10:05:17;;;;;;;32.67;27.17;;;22.40;99.90;;;;;;5085862;28;20548;-84
2023/09/12 10:07:44;;;;;;;30.85;26.00;;;22.60;99.90;;;;;;5078392;28;20048;-84
2023/09/12 10:10:11;;;;;;;30.17;26.55;;;22.50;99.90;;;;;;5051390;28;20070;-83
2023/09/12 10:12:43;;;;;;;31.38;26.58;;;22.70;99.90;;;;;;5068983;28;20098;-83
2023/09/12 10:15:10;;;;;;;;;;;22.80;99.90;;;;;;5069695;28;20041;-83
2023/09/12 10:17:39;;;;;;;29.95;25.52;;;22.80;99.90;;;;;;5084908;28;19978;-82
2023/09/12 10:20:14;;;;;;;31.35;26.52;;;22.80;99.90;;;;;;5065754;28;20040;-83
2023/09/12 10:22:56;;;;;;;31.38;26.83;;;22.80;99.90;;;;;;5067892;28;20120;-82
2023/09/12 10:25:22;;;;;;;31.35;27.02;;;22.80;99.90;;;;;;5068147;28;20052;-81
2023/09/12 10:27:49;;;;;;;30.20;26.65;;;22.90;99.90;;;;;;5050915;28;20071;-80
2023/09/12 10:30:16;;;;;;;30.13;24.95;;;23.00;99.90;;;;;;5068930;28;20040;-81
2023/09/12 10:32:45;;;;;;;30.35;25.50;;;23.10;99.90;;;;;;5068812;28;20040;-81
2023/09/12 10:35:10;;;;;;;29.92;25.02;;;23.50;99.90;;;;;;5067363;28;20049;-81
2023/09/12 10:37:41;;;;;;;26.73;23.73;;;23.60;99.90;;;;;;5077142;28;20724;-81
2023/09/12 10:40:09;;;;;;;27.98;24.27;;;23.70;99.90;;;;;;5069373;28;20133;-81
2023/09/12 10:42:35;;;;;;;28.00;23.85;;;24.00;99.90;;;;;;5072503;28;20047;-81
2023/09/12 10:45:02;;;;;;;26.73;23.83;;;24.30;99.90;;;;;;5068744;28;20470;-81
2023/09/12 10:47:29;;;;;;;26.70;23.67;;;24.40;99.90;;;;;;5068611;28;20050;-81
2023/09/12 10:49:56;;;;;;;27.15;24.23;;;24.60;99.90;;;;;;5081628;28;20375;-80
2023/09/12 10:52:27;;;;;;;25.25;20.98;;;24.70;99.90;;;;;;5081490;28;20154;-81
2023/09/12 10:54:53;;;;;;;24.58;21.98;;;24.80;99.90;;;;;;5077399;28;20071;-84
2023/09/12 10:57:19;;;;;;;25.88;22.35;;;24.70;99.90;;;;;;5087849;28;20046;-81
2023/09/12 11:00:10;;;;;;;27.42;21.75;;;24.90;99.90;;;;;;5084720;28;20494;-81
2023/09/12 11:02:43;;;;;;;23.95;21.45;;;25.00;99.90;;;;;;5088081;28;20067;-80
2023/09/12 11:05:27;;;;;;;23.30;19.27;;;25.20;99.90;;;;;;5088238;28;20043;-80
2023/09/12 11:07:57;;;;;;;20.85;18.27;;;25.30;99.90;;;;;;5078658;28;20055;-81
2023/09/12 11:10:23;;;;;;;23.08;18.40;;;25.40;99.90;;;;;;5068332;28;20086;-82
2023/09/12 11:12:51;;;;;;;22.65;20.33;;;25.50;99.90;;;;;;5068111;28;20538;-82
2023/09/12 11:15:18;;;;;;;20.08;17.73;;;25.40;99.90;;;;;;5067709;28;20048;-82
2023/09/12 11:18:00;;;;;;;22.30;19.90;;;25.40;99.90;;;;;;5068211;28;20102;-82
2023/09/12 11:20:25;;;;;;;24.23;20.55;;;25.40;99.90;;;;;;5067642;28;20290;-82
2023/09/12 11:22:52;;;;;;;22.05;18.38;;;25.20;99.90;;;;;;5067591;28;20660;-82
2023/09/12 11:25:27;;;;;;;19.80;17.52;;;25.10;99.90;;;;;;5067097;28;20058;-81
2023/09/12 11:27:53;;;;;;;18.60;16.67;;;25.00;99.90;;;;;;5082276;28;20048;-82
2023/09/12 11:30:20;;;;;;;18.65;16.67;;;24.90;99.90;;;;;;5070571;28;20113;-81
2023/09/12 11:32:47;;;;;;;19.20;17.05;;;24.80;99.90;;;;;;5080722;28;20516;-82
2023/09/12 11:35:14;;;;;;;19.02;17.00;;;24.80;99.90;;;;;;5067626;28;20048;-82
2023/09/12 11:37:47;;;;;;;22.20;19.35;;;24.80;99.90;;;;;;5066556;28;20044;-79
2023/09/12 11:40:13;;;;;;;20.95;18.75;;;24.80;99.90;;;;;;5065705;28;20041;-79
2023/09/12 11:42:42;;;;;;;22.27;19.63;;;24.60;99.90;;;;;;5066994;28;20048;-81
2023/09/12 11:45:08;;;;;;;23.05;20.50;;;24.60;99.90;;;;;;5069103;28;20091;-81
2023/09/12 11:47:34;;;;;;;22.05;19.75;;;24.60;99.90;;;;;;5083718;28;20383;-81
2023/09/12 11:50:00;;;;;;;22.80;20.40;;;24.70;99.90;;;;;;5087575;28;20048;-81
2023/09/12 11:52:25;;;;;;;19.77;17.77;;;24.80;99.90;;;;;;5071158;28;20088;-82
2023/09/12 11:54:51;;;;;;;21.10;18.38;;;24.90;99.90;;;;;;5076029;28;20049;-82
2023/09/12 11:57:16;;;;;;;21.27;18.48;;;24.90;99.90;;;;;;5073140;28;20048;-82
2023/09/12 11:59:48;;;;;;;19.70;17.70;;;25.00;99.90;;;;;;5085682;28;20052;-82
2023/09/12 12:02:14;;;;;;;20.67;18.48;;;24.90;99.90;;;;;;5086527;28;20051;-80
2023/09/12 12:04:40;;;;;;;18.45;16.65;;;24.90;99.90;;;;;;5086551;28;20052;-82
2023/09/12 12:07:07;;;;;;;20.02;16.70;;;24.90;99.90;;;;;;5083424;28;20059;-82
2023/09/12 12:09:33;;;;;;;19.52;16.75;;;24.80;99.90;;;;;;5078177;28;20178;-82
2023/09/12 12:12:14;;;;;;;17.23;15.52;;;24.80;99.90;;;;;;5067943;28;20135;-82
2023/09/12 12:14:41;;;;;;;17.60;14.60;;;24.80;99.90;;;;;;5067056;28;20578;-82
2023/09/12 12:17:11;;;;;;;17.38;13.52;;;25.20;99.90;;;;;;5067468;28;20108;-82
2023/09/12 12:19:38;;;;;;;15.32;13.80;;;25.10;99.90;;;;;;5065844;28;20445;-83
2023/09/12 12:22:16;;;;;;;15.32;13.30;;;25.10;99.90;;;;;;5067105;28;20431;-83
2023/09/12 12:25:40;;;;;;;12.93;11.18;;;25.20;99.90;;;;;;5065610;28;20439;-82